sensor_id;sensor_type;location;lat;lon;timestamp;temperature;humidity
16134;DHT22;8172;45.018;5.972;2022-10-31T00:05:01;15.40;53.50
16134;DHT22;8172;45.018;5.972;2022-10-31T00:10:14;15.40;53.50
16134;DHT22;8172;45.018;5.972;2022-10-31T00:15:26;15.40;53.70
16134;DHT22;8172;45.018;5.972;2022-10-31T00:20:38;15.40;53.60
16134;DHT22;8172;45.018;5.972;2022-10-31T00:25:51;15.40;53.60
16134;DHT22;8172;45.018;5.972;2022-10-31T00:31:04;15.40;53.50
16134;DHT22;8172;45.018;5.972;2022-10-31T00:36:17;15.40;53.40
16134;DHT22;8172;45.018;5.972;2022-10-31T00:41:28;15.40;53.30
16134;DHT22;8172;45.018;5.972;2022-10-31T00:46:42;15.40;53.30
16134;DHT22;8172;45.018;5.972;2022-10-31T00:51:53;15.40;53.30
16134;DHT22;8172;45.018;5.972;2022-10-31T00:57:04;15.40;53.20
16134;DHT22;8172;45.018;5.972;2022-10-31T01:02:14;15.40;53.30
16134;DHT22;8172;45.018;5.972;2022-10-31T01:07:25;15.40;53.40
16134;DHT22;8172;45.018;5.972;2022-10-31T01:12:37;15.40;53.40
16134;DHT22;8172;45.018;5.972;2022-10-31T01:17:50;15.30;53.60
16134;DHT22;8172;45.018;5.972;2022-10-31T01:23:01;15.30;53.80
16134;DHT22;8172;45.018;5.972;2022-10-31T01:28:11;15.30;53.70
16134;DHT22;8172;45.018;5.972;2022-10-31T01:33:21;15.30;53.80
16134;DHT22;8172;45.018;5.972;2022-10-31T01:38:32;15.30;53.90
16134;DHT22;8172;45.018;5.972;2022-10-31T01:49:04;15.20;54.10
16134;DHT22;8172;45.018;5.972;2022-10-31T01:54:15;15.20;54.00
16134;DHT22;8172;45.018;5.972;2022-10-31T01:59:27;15.20;53.80
16134;DHT22;8172;45.018;5.972;2022-10-31T02:04:37;15.30;53.70
16134;DHT22;8172;45.018;5.972;2022-10-31T02:09:49;15.30;53.70
16134;DHT22;8172;45.018;5.972;2022-10-31T02:14:58;15.40;53.80
16134;DHT22;8172;45.018;5.972;2022-10-31T02:20:14;15.30;53.70
16134;DHT22;8172;45.018;5.972;2022-10-31T02:51:42;15.20;54.10
16134;DHT22;8172;45.018;5.972;2022-10-31T02:56:59;15.20;53.90
16134;DHT22;8172;45.018;5.972;2022-10-31T03:23:12;15.20;53.50
16134;DHT22;8172;45.018;5.972;2022-10-31T03:28:27;15.20;53.50
16134;DHT22;8172;45.018;5.972;2022-10-31T03:33:39;15.10;53.50
16134;DHT22;8172;45.018;5.972;2022-10-31T03:38:49;15.10;53.20
16134;DHT22;8172;45.018;5.972;2022-10-31T03:44:03;15.10;53.20
16134;DHT22;8172;45.018;5.972;2022-10-31T03:49:17;15.10;53.50
16134;DHT22;8172;45.018;5.972;2022-10-31T03:54:31;15.10;53.20
16134;DHT22;8172;45.018;5.972;2022-10-31T03:59:44;15.10;53.20
16134;DHT22;8172;45.018;5.972;2022-10-31T04:04:55;15.20;53.20
16134;DHT22;8172;45.018;5.972;2022-10-31T04:10:07;15.20;53.10
16134;DHT22;8172;45.018;5.972;2022-10-31T04:15:22;15.20;53.00
16134;DHT22;8172;45.018;5.972;2022-10-31T04:20:36;15.20;53.10
16134;DHT22;8172;45.018;5.972;2022-10-31T04:25:51;15.10;52.90
16134;DHT22;8172;45.018;5.972;2022-10-31T04:31:02;15.10;52.60
16134;DHT22;8172;45.018;5.972;2022-10-31T04:36:15;15.10;52.50
16134;DHT22;8172;45.018;5.972;2022-10-31T04:41:27;15.10;52.40
16134;DHT22;8172;45.018;5.972;2022-10-31T04:46:39;15.00;52.60
16134;DHT22;8172;45.018;5.972;2022-10-31T04:51:51;15.00;52.60
16134;DHT22;8172;45.018;5.972;2022-10-31T04:57:04;15.00;52.60
16134;DHT22;8172;45.018;5.972;2022-10-31T05:02:14;15.00;52.80
16134;DHT22;8172;45.018;5.972;2022-10-31T05:07:27;14.90;53.00
16134;DHT22;8172;45.018;5.972;2022-10-31T05:12:36;14.90;53.20
16134;DHT22;8172;45.018;5.972;2022-10-31T05:17:48;14.80;53.00
16134;DHT22;8172;45.018;5.972;2022-10-31T05:23:02;14.70;53.20
16134;DHT22;8172;45.018;5.972;2022-10-31T05:28:12;14.70;53.40
16134;DHT22;8172;45.018;5.972;2022-10-31T05:33:23;14.70;53.30
16134;DHT22;8172;45.018;5.972;2022-10-31T05:38:37;14.70;53.10
16134;DHT22;8172;45.018;5.972;2022-10-31T05:43:49;14.70;52.80
16134;DHT22;8172;45.018;5.972;2022-10-31T05:49:01;14.70;52.60
16134;DHT22;8172;45.018;5.972;2022-10-31T05:54:12;14.70;52.40
16134;DHT22;8172;45.018;5.972;2022-10-31T05:59:26;14.70;52.50
16134;DHT22;8172;45.018;5.972;2022-10-31T06:04:38;14.70;52.40
16134;DHT22;8172;45.018;5.972;2022-10-31T06:09:50;14.70;52.50
16134;DHT22;8172;45.018;5.972;2022-10-31T06:15:04;14.60;52.50
16134;DHT22;8172;45.018;5.972;2022-10-31T06:20:18;14.50;52.60
16134;DHT22;8172;45.018;5.972;2022-10-31T06:25:29;14.40;52.60
16134;DHT22;8172;45.018;5.972;2022-10-31T06:30:38;14.50;52.70
16134;DHT22;8172;45.018;5.972;2022-10-31T06:35:50;14.60;52.70
16134;DHT22;8172;45.018;5.972;2022-10-31T06:41:03;14.60;52.60
16134;DHT22;8172;45.018;5.972;2022-10-31T06:46:16;14.60;52.70
16134;DHT22;8172;45.018;5.972;2022-10-31T06:51:40;14.60;52.50
16134;DHT22;8172;45.018;5.972;2022-10-31T06:57:07;14.60;52.40
16134;DHT22;8172;45.018;5.972;2022-10-31T07:02:21;14.60;52.30
16134;DHT22;8172;45.018;5.972;2022-10-31T07:07:33;14.60;52.50
16134;DHT22;8172;45.018;5.972;2022-10-31T07:12:42;14.60;52.50
16134;DHT22;8172;45.018;5.972;2022-10-31T07:17:53;14.60;52.60
16134;DHT22;8172;45.018;5.972;2022-10-31T07:23:07;14.60;52.50
16134;DHT22;8172;45.018;5.972;2022-10-31T07:28:21;14.60;52.50
16134;DHT22;8172;45.018;5.972;2022-10-31T07:33:33;14.60;52.60
16134;DHT22;8172;45.018;5.972;2022-10-31T07:38:44;14.60;52.50
16134;DHT22;8172;45.018;5.972;2022-10-31T07:43:54;14.70;52.40
16134;DHT22;8172;45.018;5.972;2022-10-31T07:49:07;14.80;52.40
16134;DHT22;8172;45.018;5.972;2022-10-31T07:54:18;14.70;52.50
16134;DHT22;8172;45.018;5.972;2022-10-31T07:59:29;14.70;52.70
16134;DHT22;8172;45.018;5.972;2022-10-31T08:04:40;14.70;52.90
16134;DHT22;8172;45.018;5.972;2022-10-31T08:09:52;14.80;52.80
16134;DHT22;8172;45.018;5.972;2022-10-31T08:15:05;14.80;52.80
16134;DHT22;8172;45.018;5.972;2022-10-31T08:20:17;14.80;52.80
16134;DHT22;8172;45.018;5.972;2022-10-31T08:25:33;14.80;52.50
16134;DHT22;8172;45.018;5.972;2022-10-31T08:30:44;14.80;52.40
16134;DHT22;8172;45.018;5.972;2022-10-31T08:35:57;14.80;52.60
16134;DHT22;8172;45.018;5.972;2022-10-31T08:41:06;14.90;52.70
16134;DHT22;8172;45.018;5.972;2022-10-31T08:46:16;15.00;52.30
16134;DHT22;8172;45.018;5.972;2022-10-31T08:51:27;15.20;52.10
16134;DHT22;8172;45.018;5.972;2022-10-31T08:56:37;15.30;51.90
16134;DHT22;8172;45.018;5.972;2022-10-31T09:02:02;15.60;51.80
16134;DHT22;8172;45.018;5.972;2022-10-31T09:07:11;15.80;51.80
16134;DHT22;8172;45.018;5.972;2022-10-31T09:12:27;15.90;51.60
16134;DHT22;8172;45.018;5.972;2022-10-31T09:17:39;16.00;51.40
16134;DHT22;8172;45.018;5.972;2022-10-31T09:22:57;16.10;51.40
16134;DHT22;8172;45.018;5.972;2022-10-31T09:28:18;16.20;51.30
16134;DHT22;8172;45.018;5.972;2022-10-31T09:33:29;16.30;51.30
16134;DHT22;8172;45.018;5.972;2022-10-31T09:38:51;16.40;51.30
16134;DHT22;8172;45.018;5.972;2022-10-31T09:54:38;16.40;51.60
16134;DHT22;8172;45.018;5.972;2022-10-31T09:59:54;16.50;51.60
16134;DHT22;8172;45.018;5.972;2022-10-31T10:05:13;16.50;51.50
16134;DHT22;8172;45.018;5.972;2022-10-31T10:10:35;16.50;51.50
16134;DHT22;8172;45.018;5.972;2022-10-31T10:20:57;16.60;51.50
16134;DHT22;8172;45.018;5.972;2022-10-31T10:26:14;16.70;50.60
16134;DHT22;8172;45.018;5.972;2022-10-31T10:31:24;16.80;50.60
16134;DHT22;8172;45.018;5.972;2022-10-31T10:36:41;17.00;49.50
16134;DHT22;8172;45.018;5.972;2022-10-31T10:47:32;17.40;47.30
16134;DHT22;8172;45.018;5.972;2022-10-31T10:58:03;17.60;46.50
16134;DHT22;8172;45.018;5.972;2022-10-31T11:03:23;17.70;45.40
16134;DHT22;8172;45.018;5.972;2022-10-31T11:08:43;17.90;43.10
16134;DHT22;8172;45.018;5.972;2022-10-31T11:13:58;18.00;42.40
16134;DHT22;8172;45.018;5.972;2022-10-31T11:24:22;18.30;41.10
16134;DHT22;8172;45.018;5.972;2022-10-31T11:29:34;18.50;40.30
16134;DHT22;8172;45.018;5.972;2022-10-31T11:34:56;18.60;39.70
16134;DHT22;8172;45.018;5.972;2022-10-31T11:40:21;18.50;39.20
16134;DHT22;8172;45.018;5.972;2022-10-31T11:45:43;18.50;39.50
16134;DHT22;8172;45.018;5.972;2022-10-31T11:50:57;18.50;39.00
16134;DHT22;8172;45.018;5.972;2022-10-31T11:56:13;18.60;39.20
16134;DHT22;8172;45.018;5.972;2022-10-31T12:01:32;18.80;38.80
16134;DHT22;8172;45.018;5.972;2022-10-31T12:06:48;18.90;38.20
16134;DHT22;8172;45.018;5.972;2022-10-31T12:12:40;19.00;38.90
16134;DHT22;8172;45.018;5.972;2022-10-31T12:17:18;19.10;37.60
16134;DHT22;8172;45.018;5.972;2022-10-31T12:22:36;19.20;38.20
16134;DHT22;8172;45.018;5.972;2022-10-31T12:33:15;19.30;37.00
16134;DHT22;8172;45.018;5.972;2022-10-31T12:38:28;19.30;37.00
16134;DHT22;8172;45.018;5.972;2022-10-31T12:54:39;19.60;36.90
16134;DHT22;8172;45.018;5.972;2022-10-31T12:59:53;19.70;36.70
16134;DHT22;8172;45.018;5.972;2022-10-31T13:05:05;19.70;36.60
16134;DHT22;8172;45.018;5.972;2022-10-31T13:15:33;19.90;36.30
16134;DHT22;8172;45.018;5.972;2022-10-31T13:20:49;19.90;36.50
16134;DHT22;8172;45.018;5.972;2022-10-31T13:26:10;19.90;35.80
16134;DHT22;8172;45.018;5.972;2022-10-31T13:31:20;19.90;36.20
16134;DHT22;8172;45.018;5.972;2022-10-31T13:36:39;19.80;35.90
16134;DHT22;8172;45.018;5.972;2022-10-31T13:52:24;19.80;36.30
16134;DHT22;8172;45.018;5.972;2022-10-31T13:57:37;19.80;36.20
16134;DHT22;8172;45.018;5.972;2022-10-31T14:02:48;19.80;36.20
16134;DHT22;8172;45.018;5.972;2022-10-31T14:08:02;19.70;36.50
16134;DHT22;8172;45.018;5.972;2022-10-31T14:13:22;19.70;36.40
16134;DHT22;8172;45.018;5.972;2022-10-31T14:18:31;19.60;36.30
16134;DHT22;8172;45.018;5.972;2022-10-31T14:24:02;19.40;36.50
16134;DHT22;8172;45.018;5.972;2022-10-31T14:34:27;19.10;36.20
16134;DHT22;8172;45.018;5.972;2022-10-31T14:50:31;18.70;36.60
16134;DHT22;8172;45.018;5.972;2022-10-31T14:55:31;18.70;36.50
16134;DHT22;8172;45.018;5.972;2022-10-31T15:00:50;18.60;36.50
16134;DHT22;8172;45.018;5.972;2022-10-31T15:06:21;18.50;36.70
16134;DHT22;8172;45.018;5.972;2022-10-31T15:11:42;18.40;36.90
16134;DHT22;8172;45.018;5.972;2022-10-31T15:16:54;18.30;36.50
16134;DHT22;8172;45.018;5.972;2022-10-31T15:22:05;18.30;36.30
16134;DHT22;8172;45.018;5.972;2022-10-31T15:27:21;18.20;36.50
16134;DHT22;8172;45.018;5.972;2022-10-31T15:32:32;18.20;36.00
16134;DHT22;8172;45.018;5.972;2022-10-31T15:37:42;18.10;36.50
16134;DHT22;8172;45.018;5.972;2022-10-31T15:48:14;18.10;36.70
16134;DHT22;8172;45.018;5.972;2022-10-31T15:53:24;18.00;36.60
16134;DHT22;8172;45.018;5.972;2022-10-31T15:58:39;18.00;36.60
16134;DHT22;8172;45.018;5.972;2022-10-31T16:09:17;18.00;36.80
16134;DHT22;8172;45.018;5.972;2022-10-31T16:14:20;18.00;37.00
16134;DHT22;8172;45.018;5.972;2022-10-31T16:40:35;17.80;37.30
16134;DHT22;8172;45.018;5.972;2022-10-31T16:45:47;17.70;37.50
16134;DHT22;8172;45.018;5.972;2022-10-31T16:50:57;17.70;37.50
16134;DHT22;8172;45.018;5.972;2022-10-31T16:56:14;17.60;37.30
16134;DHT22;8172;45.018;5.972;2022-10-31T17:01:21;17.60;37.50
16134;DHT22;8172;45.018;5.972;2022-10-31T17:06:30;17.60;38.10
16134;DHT22;8172;45.018;5.972;2022-10-31T17:11:46;17.50;38.20
16134;DHT22;8172;45.018;5.972;2022-10-31T17:17:06;17.40;38.10
16134;DHT22;8172;45.018;5.972;2022-10-31T17:22:25;17.30;38.00
16134;DHT22;8172;45.018;5.972;2022-10-31T17:27:46;17.30;38.10
16134;DHT22;8172;45.018;5.972;2022-10-31T17:33:02;17.30;38.00
16134;DHT22;8172;45.018;5.972;2022-10-31T17:38:18;17.30;37.80
16134;DHT22;8172;45.018;5.972;2022-10-31T17:43:37;17.30;38.00
16134;DHT22;8172;45.018;5.972;2022-10-31T17:48:48;17.20;38.00
16134;DHT22;8172;45.018;5.972;2022-10-31T17:54:12;17.20;38.20
16134;DHT22;8172;45.018;5.972;2022-10-31T17:59:25;17.20;38.30
16134;DHT22;8172;45.018;5.972;2022-10-31T18:04:45;17.10;38.20
16134;DHT22;8172;45.018;5.972;2022-10-31T18:09:53;17.10;38.50
16134;DHT22;8172;45.018;5.972;2022-10-31T18:15:07;17.10;38.30
16134;DHT22;8172;45.018;5.972;2022-10-31T18:20:18;17.10;38.10
16134;DHT22;8172;45.018;5.972;2022-10-31T18:25:30;17.10;38.20
16134;DHT22;8172;45.018;5.972;2022-10-31T18:30:43;17.20;38.30
16134;DHT22;8172;45.018;5.972;2022-10-31T18:36:02;17.20;38.40
16134;DHT22;8172;45.018;5.972;2022-10-31T18:41:12;17.20;38.40
16134;DHT22;8172;45.018;5.972;2022-10-31T18:46:26;17.20;38.40
16134;DHT22;8172;45.018;5.972;2022-10-31T18:51:39;17.20;38.40
16134;DHT22;8172;45.018;5.972;2022-10-31T18:56:51;17.20;38.30
16134;DHT22;8172;45.018;5.972;2022-10-31T19:02:04;17.20;38.40
16134;DHT22;8172;45.018;5.972;2022-10-31T19:07:15;17.30;38.50
16134;DHT22;8172;45.018;5.972;2022-10-31T19:12:33;17.30;38.60
16134;DHT22;8172;45.018;5.972;2022-10-31T19:17:49;17.20;38.50
16134;DHT22;8172;45.018;5.972;2022-10-31T19:23:03;17.20;38.50
16134;DHT22;8172;45.018;5.972;2022-10-31T19:28:15;17.20;38.40
16134;DHT22;8172;45.018;5.972;2022-10-31T19:33:31;17.20;38.60
16134;DHT22;8172;45.018;5.972;2022-10-31T19:38:51;17.20;38.50
16134;DHT22;8172;45.018;5.972;2022-10-31T19:44:09;17.10;38.90
16134;DHT22;8172;45.018;5.972;2022-10-31T19:49:24;17.10;38.90
16134;DHT22;8172;45.018;5.972;2022-10-31T19:54:38;17.00;39.00
16134;DHT22;8172;45.018;5.972;2022-10-31T19:59:55;16.90;39.00
16134;DHT22;8172;45.018;5.972;2022-10-31T20:05:14;16.90;39.10
16134;DHT22;8172;45.018;5.972;2022-10-31T20:10:29;16.90;39.00
16134;DHT22;8172;45.018;5.972;2022-10-31T20:15:46;16.90;38.80
16134;DHT22;8172;45.018;5.972;2022-10-31T20:21:13;16.90;38.60
16134;DHT22;8172;45.018;5.972;2022-10-31T20:26:33;16.90;38.60
16134;DHT22;8172;45.018;5.972;2022-10-31T20:31:46;16.90;38.50
16134;DHT22;8172;45.018;5.972;2022-10-31T20:37:05;16.80;38.40
16134;DHT22;8172;45.018;5.972;2022-10-31T20:42:33;16.80;38.30
16134;DHT22;8172;45.018;5.972;2022-10-31T20:47:52;16.90;38.30
16134;DHT22;8172;45.018;5.972;2022-10-31T20:53:05;16.80;38.30
16134;DHT22;8172;45.018;5.972;2022-10-31T20:58:23;16.80;38.30
16134;DHT22;8172;45.018;5.972;2022-10-31T21:03:37;16.80;38.30
16134;DHT22;8172;45.018;5.972;2022-10-31T21:08:51;16.80;38.50
16134;DHT22;8172;45.018;5.972;2022-10-31T21:14:04;16.70;38.80
16134;DHT22;8172;45.018;5.972;2022-10-31T21:19:14;16.70;38.90
16134;DHT22;8172;45.018;5.972;2022-10-31T21:24:27;16.60;39.10
16134;DHT22;8172;45.018;5.972;2022-10-31T21:29:43;16.50;39.30
16134;DHT22;8172;45.018;5.972;2022-10-31T21:34:59;16.50;39.40
16134;DHT22;8172;45.018;5.972;2022-10-31T21:40:30;16.40;39.60
16134;DHT22;8172;45.018;5.972;2022-10-31T21:45:39;16.50;39.60
16134;DHT22;8172;45.018;5.972;2022-10-31T21:50:48;16.40;39.60
16134;DHT22;8172;45.018;5.972;2022-10-31T21:56:02;16.50;39.60
16134;DHT22;8172;45.018;5.972;2022-10-31T22:01:16;16.50;39.60
16134;DHT22;8172;45.018;5.972;2022-10-31T22:06:32;16.40;39.70
16134;DHT22;8172;45.018;5.972;2022-10-31T22:11:43;16.40;39.70
16134;DHT22;8172;45.018;5.972;2022-10-31T22:16:58;16.40;39.90
16134;DHT22;8172;45.018;5.972;2022-10-31T22:22:15;16.40;40.00
16134;DHT22;8172;45.018;5.972;2022-10-31T22:27:27;16.30;40.10
16134;DHT22;8172;45.018;5.972;2022-10-31T22:32:40;16.30;40.20
16134;DHT22;8172;45.018;5.972;2022-10-31T22:37:51;16.30;40.40
16134;DHT22;8172;45.018;5.972;2022-10-31T22:43:01;16.30;40.40
16134;DHT22;8172;45.018;5.972;2022-10-31T22:48:27;16.30;40.50
16134;DHT22;8172;45.018;5.972;2022-10-31T22:53:44;16.20;40.60
16134;DHT22;8172;45.018;5.972;2022-10-31T22:59:05;16.20;40.70
16134;DHT22;8172;45.018;5.972;2022-10-31T23:04:20;16.20;40.70
16134;DHT22;8172;45.018;5.972;2022-10-31T23:09:33;16.20;40.70
16134;DHT22;8172;45.018;5.972;2022-10-31T23:14:44;16.20;40.70
16134;DHT22;8172;45.018;5.972;2022-10-31T23:20:01;16.20;40.60
16134;DHT22;8172;45.018;5.972;2022-10-31T23:25:11;16.20;40.80
16134;DHT22;8172;45.018;5.972;2022-10-31T23:30:23;16.20;40.90
16134;DHT22;8172;45.018;5.972;2022-10-31T23:35:36;16.10;40.90
16134;DHT22;8172;45.018;5.972;2022-10-31T23:40:48;16.10;40.90
16134;DHT22;8172;45.018;5.972;2022-10-31T23:46:00;16.10;40.90
16134;DHT22;8172;45.018;5.972;2022-10-31T23:51:16;16.10;41.00
16134;DHT22;8172;45.018;5.972;2022-10-31T23:56:32;16.10;41.20
